Time;durP1;ratioP1;P1;durP2;ratioP2;P2;SDS_P1;SDS_P2;PMS_P1;PMS_P2;Temp;Humidity;BMP_temperature;BMP_pressure;BME280_temperature;BME280_humidity;BME280_pressure;Samples;Min_cycle;Max_cycle;Signal;HPM_P1;HPM_P2
2022/12/23 00:02:06;;;;;;;15.90;7.30;;;;;;;;;;5015053;28;20437;-40
2022/12/23 00:04:31;;;;;;;31.13;7.68;;;;;;;;;;5033041;28;20029;-39
2022/12/23 00:06:57;;;;;;;22.35;8.88;;;;;;;;;;5032920;28;20484;-40
2022/12/23 00:09:22;;;;;;;22.83;8.20;;;;;;;;;;5032657;28;20113;-39
2022/12/23 00:15:04;;;;;;;13.43;6.75;;;;;;;;;;5032905;28;20029;-40
2022/12/23 00:17:20;;;;;;;13.90;5.85;;;;;;;;;;5032842;28;20056;-39
2022/12/23 00:19:45;;;;;;;19.77;8.20;;;;;;;;;;5032566;28;20488;-39
2022/12/23 00:22:10;;;;;;;15.45;7.30;;;;;;;;;;5032655;28;20049;-39
2022/12/23 00:24:35;;;;;;;20.73;8.52;;;;;;;;;;5032396;28;20538;-40
2022/12/23 00:27:01;;;;;;;19.35;8.68;;;;;;;;;;5032540;28;20048;-40
2022/12/23 00:29:26;;;;;;;14.05;8.23;;;;;;;;;;5032398;28;20021;-40
2022/12/23 00:31:52;;;;;;;16.48;6.82;;;;;;;;;;5032242;28;20465;-39
2022/12/23 00:34:17;;;;;;;20.83;7.13;;;;;;;;;;5014935;28;20033;-39
2022/12/23 00:36:42;;;;;;;17.98;7.72;;;;;;;;;;5014468;28;20495;-39
2022/12/23 00:44:38;;;;;;;17.10;7.38;;;;;;;;;;5032016;28;20033;-42
2022/12/23 00:47:03;;;;;;;19.83;7.45;;;;;;;;;;5014174;28;20072;-40
2022/12/23 00:49:41;;;;;;;15.07;7.70;;;;;;;;;;5032095;28;20022;-40
2022/12/23 00:52:08;;;;;;;18.00;8.95;;;;;;;;;;5031841;28;20048;-40
2022/12/23 00:54:33;;;;;;;18.20;6.88;;;;;;;;;;5032214;28;20025;-40
2022/12/23 00:56:59;;;;;;;26.38;8.85;;;;;;;;;;5032004;28;20747;-40
2022/12/23 00:59:24;;;;;;;14.07;8.20;;;;;;;;;;5032077;28;20029;-39
2022/12/23 01:07:18;;;;;;;9.52;5.38;;;;;;;;;;5031677;28;20030;-39
2022/12/23 01:09:43;;;;;;;14.85;8.48;;;;;;;;;;5031686;28;20028;-39
2022/12/23 01:12:09;;;;;;;17.95;6.15;;;;;;;;;;5031461;28;20037;-39
2022/12/23 01:14:34;;;;;;;13.15;6.60;;;;;;;;;;5031903;28;20037;-40
2022/12/23 01:17:00;;;;;;;11.02;5.50;;;;;;;;;;5031811;28;20029;-40
2022/12/23 01:19:26;;;;;;;8.55;5.38;;;;;;;;;;5031777;28;20022;-40
2022/12/23 01:21:51;;;;;;;14.23;5.30;;;;;;;;;;5014023;28;20052;-40
2022/12/23 01:24:16;;;;;;;13.80;6.60;;;;;;;;;;5031556;28;20068;-39
2022/12/23 01:26:42;;;;;;;15.10;6.05;;;;;;;;;;5031449;28;20025;-39
2022/12/23 01:29:08;;;;;;;20.38;6.50;;;;;;;;;;5031603;28;20091;-39
2022/12/23 01:31:33;;;;;;;16.90;5.70;;;;;;;;;;5031456;28;20369;-40
2022/12/23 01:33:58;;;;;;;6.82;4.90;;;;;;;;;;5031586;28;20113;-39
2022/12/23 01:36:24;;;;;;;10.38;3.97;;;;;;;;;;5031644;28;20030;-39
2022/12/23 01:38:49;;;;;;;6.90;4.95;;;;;;;;;;5031484;28;20022;-39
2022/12/23 01:42:42;;;;;;;13.10;6.78;;;;;;;;;;5031378;28;20399;-39
2022/12/23 01:44:23;;;;;;;17.50;6.22;;;;;;;;;;5013459;28;20523;-40
2022/12/23 01:46:48;;;;;;;7.45;4.45;;;;;;;;;;5030968;28;20132;-40
2022/12/23 01:49:13;;;;;;;7.00;4.28;;;;;;;;;;5031473;28;20531;-39
2022/12/23 01:51:39;;;;;;;10.70;4.40;;;;;;;;;;5031445;28;20160;-40
2022/12/23 01:54:05;;;;;;;11.68;5.60;;;;;;;;;;5032143;28;20033;-40
2022/12/23 01:56:33;;;;;;;11.23;4.53;;;;;;;;;;5035138;28;20135;-40
2022/12/23 01:59:04;;;;;;;10.27;4.22;;;;;;;;;;5035128;28;20472;-40
2022/12/23 02:04:16;;;;;;;10.25;5.32;;;;;;;;;;5035127;28;20045;-44
2022/12/23 02:09:27;;;;;;;6.25;4.50;;;;;;;;;;5034990;28;20029;-39
2022/12/23 02:12:04;;;;;;;9.02;4.38;;;;;;;;;;5034955;28;20479;-40
2022/12/23 02:17:38;;;;;;;3.67;2.93;;;;;;;;;;5034834;28;20486;-39
2022/12/23 02:20:22;;;;;;;7.53;3.55;;;;;;;;;;5034826;28;20022;-40
2022/12/23 02:22:50;;;;;;;3.80;3.42;;;;;;;;;;5034741;28;20542;-40
2022/12/23 02:25:35;;;;;;;8.60;4.30;;;;;;;;;;5034606;28;20544;-40
2022/12/23 02:28:19;;;;;;;8.95;5.18;;;;;;;;;;5034570;28;20026;-39
2022/12/23 02:30:47;;;;;;;6.80;3.78;;;;;;;;;;5034636;28;20029;-40
2022/12/23 02:33:19;;;;;;;7.72;4.32;;;;;;;;;;5034574;28;20049;-40
2022/12/23 02:35:45;;;;;;;5.35;3.67;;;;;;;;;;5034589;28;20400;-39
2022/12/23 02:38:26;;;;;;;6.93;4.38;;;;;;;;;;5034356;28;20037;-39
2022/12/23 02:41:08;;;;;;;8.77;4.43;;;;;;;;;;5034623;28;20055;-40
2022/12/23 02:43:45;;;;;;;7.68;4.93;;;;;;;;;;5034284;28;20032;-43
2022/12/23 02:46:20;;;;;;;10.55;4.32;;;;;;;;;;5034015;28;20045;-40
2022/12/23 02:49:07;;;;;;;5.45;3.85;;;;;;;;;;5034187;28;20468;-40
2022/12/23 02:51:39;;;;;;;8.48;4.38;;;;;;;;;;5034199;28;20042;-39
2022/12/23 02:54:07;;;;;;;9.57;4.65;;;;;;;;;;5034103;28;20041;-40
2022/12/23 02:56:34;;;;;;;11.73;4.60;;;;;;;;;;5034156;28;20022;-39
2022/12/23 02:59:05;;;;;;;4.72;3.50;;;;;;;;;;5034274;28;20052;-39
2022/12/23 03:01:32;;;;;;;8.95;4.03;;;;;;;;;;5034092;28;20029;-40
2022/12/23 03:03:57;;;;;;;9.93;4.45;;;;;;;;;;5033813;28;20559;-39
2022/12/23 03:06:31;;;;;;;6.72;3.42;;;;;;;;;;5033535;28;20112;-40
2022/12/23 03:08:58;;;;;;;6.70;3.65;;;;;;;;;;5033786;28;20056;-40
2022/12/23 03:11:42;;;;;;;7.78;4.65;;;;;;;;;;5034187;28;20029;-41
2022/12/23 03:14:28;;;;;;;5.80;4.05;;;;;;;;;;5032439;28;20041;-40
2022/12/23 03:17:13;;;;;;;9.10;4.35;;;;;;;;;;5002678;28;20376;-40
2022/12/23 03:19:39;;;;;;;17.25;5.18;;;;;;;;;;5002859;28;20041;-39
2022/12/23 03:22:14;;;;;;;10.15;4.32;;;;;;;;;;5033548;28;20033;-39
2022/12/23 03:24:39;;;;;;;7.13;3.70;;;;;;;;;;5033527;28;20081;-40
2022/12/23 03:27:15;;;;;;;8.23;4.55;;;;;;;;;;5033477;28;20045;-39
2022/12/23 03:29:50;;;;;;;7.03;4.28;;;;;;;;;;5033544;28;20438;-40
2022/12/23 03:32:17;;;;;;;4.80;3.20;;;;;;;;;;5033482;28;20065;-39
2022/12/23 03:34:44;;;;;;;4.22;2.70;;;;;;;;;;5033382;28;20057;-39
2022/12/23 03:37:10;;;;;;;6.15;3.10;;;;;;;;;;5033252;28;20041;-40
2022/12/23 03:39:45;;;;;;;4.10;2.08;;;;;;;;;;5015714;28;20026;-40
2022/12/23 03:42:17;;;;;;;3.92;2.03;;;;;;;;;;5033130;28;20052;-40
2022/12/23 03:44:46;;;;;;;5.20;3.13;;;;;;;;;;5033130;28;20095;-40
2022/12/23 03:47:17;;;;;;;6.35;2.58;;;;;;;;;;5032950;28;20056;-40
2022/12/23 03:50:06;;;;;;;9.95;3.20;;;;;;;;;;5033151;28;20029;-40
2022/12/23 03:52:45;;;;;;;4.65;2.67;;;;;;;;;;5024922;28;20034;-40
2022/12/23 03:55:13;;;;;;;7.70;2.92;;;;;;;;;;5032955;28;20041;-40
2022/12/23 03:57:46;;;;;;;4.10;3.17;;;;;;;;;;5033084;28;20025;-40
2022/12/23 04:00:11;;;;;;;;;;;;;;;;;;5033350;28;20572;-40
2022/12/23 04:02:44;;;;;;;2.60;2.10;;;;;;;;;;5032847;28;20004;-40
2022/12/23 04:05:16;;;;;;;4.70;2.50;;;;;;;;;;5032947;28;20041;-39
2022/12/23 04:07:48;;;;;;;7.60;2.95;;;;;;;;;;5032834;28;20029;-39
2022/12/23 04:10:14;;;;;;;3.78;2.63;;;;;;;;;;5032709;28;20108;-39
2022/12/23 04:12:39;;;;;;;5.63;3.10;;;;;;;;;;5032700;28;20176;-39
2022/12/23 04:15:05;;;;;;;9.65;3.97;;;;;;;;;;5032866;28;20174;-40
2022/12/23 04:17:31;;;;;;;7.63;3.05;;;;;;;;;;5031735;28;20103;-39
2022/12/23 04:19:56;;;;;;;5.38;2.53;;;;;;;;;;5032847;28;20034;-40
2022/12/23 04:22:22;;;;;;;5.00;2.78;;;;;;;;;;5032610;28;20040;-40
2022/12/23 04:24:47;;;;;;;4.22;3.17;;;;;;;;;;5032654;28;20053;-40
2022/12/23 04:27:13;;;;;;;5.88;2.90;;;;;;;;;;5032356;28;20021;-39
2022/12/23 04:29:39;;;;;;;8.20;3.05;;;;;;;;;;5032442;28;20152;-40
2022/12/23 04:32:04;;;;;;;6.65;2.83;;;;;;;;;;5032239;28;20100;-40
2022/12/23 04:34:30;;;;;;;4.65;2.78;;;;;;;;;;5032410;28;20037;-39
2022/12/23 04:36:55;;;;;;;2.72;2.15;;;;;;;;;;5032141;28;20032;-40
2022/12/23 04:39:21;;;;;;;4.15;2.08;;;;;;;;;;5032476;28;20039;-40
2022/12/23 04:41:46;;;;;;;3.83;2.70;;;;;;;;;;5014411;28;20025;-40
2022/12/23 04:44:12;;;;;;;4.60;2.53;;;;;;;;;;5032245;28;20103;-40
2022/12/23 04:46:37;;;;;;;6.22;3.03;;;;;;;;;;5031912;28;20396;-40
2022/12/23 04:49:02;;;;;;;5.60;3.13;;;;;;;;;;5030771;28;20072;-40
2022/12/23 04:51:28;;;;;;;3.72;2.33;;;;;;;;;;5031970;28;20456;-40
2022/12/23 04:53:53;;;;;;;5.05;3.08;;;;;;;;;;5031817;28;20029;-39
2022/12/23 04:56:18;;;;;;;5.85;3.42;;;;;;;;;;5031960;28;20100;-39
2022/12/23 04:58:43;;;;;;;3.45;2.40;;;;;;;;;;5032169;28;20125;-40
2022/12/23 05:01:10;;;;;;;4.90;2.80;;;;;;;;;;5031999;28;20037;-39
2022/12/23 05:03:35;;;;;;;4.53;2.60;;;;;;;;;;5031793;28;20044;-43
2022/12/23 05:06:01;;;;;;;2.97;1.70;;;;;;;;;;5031732;28;20107;-39
2022/12/23 05:08:27;;;;;;;6.20;2.33;;;;;;;;;;5031645;28;20049;-40
2022/12/23 05:10:52;;;;;;;3.70;2.08;;;;;;;;;;5030440;28;20464;-40
2022/12/23 05:13:17;;;;;;;2.85;1.70;;;;;;;;;;5031683;28;20025;-40
2022/12/23 05:15:48;;;;;;;6.05;3.55;;;;;;;;;;5031570;28;20032;-40
2022/12/23 05:18:13;;;;;;;4.45;3.38;;;;;;;;;;5031692;28;20113;-40
2022/12/23 05:20:39;;;;;;;3.58;2.35;;;;;;;;;;5031526;28;20107;-39
2022/12/23 05:23:04;;;;;;;3.30;2.22;;;;;;;;;;5031685;28;20029;-40
2022/12/23 05:25:31;;;;;;;4.03;2.70;;;;;;;;;;5031408;28;20628;-40
2022/12/23 05:27:56;;;;;;;3.88;2.30;;;;;;;;;;5031231;28;20036;-39
2022/12/23 05:30:22;;;;;;;3.92;2.03;;;;;;;;;;5031400;28;20029;-40
2022/12/23 05:32:51;;;;;;;3.40;2.08;;;;;;;;;;5031465;28;20072;-40
2022/12/23 05:35:16;;;;;;;4.57;2.95;;;;;;;;;;5031584;28;20044;-39
2022/12/23 05:37:42;;;;;;;4.82;2.95;;;;;;;;;;5031545;28;20486;-40
2022/12/23 05:40:07;;;;;;;3.33;2.20;;;;;;;;;;5031536;28;20417;-40
2022/12/23 05:42:33;;;;;;;4.63;2.67;;;;;;;;;;5031203;28;20030;-40
2022/12/23 05:44:58;;;;;;;3.80;2.28;;;;;;;;;;5031067;28;20172;-41
2022/12/23 05:47:24;;;;;;;3.20;2.58;;;;;;;;;;5031267;28;20042;-40
2022/12/23 05:49:49;;;;;;;7.70;4.55;;;;;;;;;;5031202;28;20029;-40
2022/12/23 05:52:15;;;;;;;7.57;3.97;;;;;;;;;;5031129;28;20041;-39
2022/12/23 05:54:40;;;;;;;5.88;3.42;;;;;;;;;;5031502;28;20036;-39
2022/12/23 05:57:05;;;;;;;4.07;2.40;;;;;;;;;;5031062;28;20438;-40
2022/12/23 05:59:31;;;;;;;3.10;1.80;;;;;;;;;;5031485;28;20021;-40
2022/12/23 06:01:56;;;;;;;3.55;2.53;;;;;;;;;;5031059;28;20471;-40
2022/12/23 06:04:21;;;;;;;9.68;3.78;;;;;;;;;;5031027;28;20034;-40
2022/12/23 06:06:47;;;;;;;5.70;3.75;;;;;;;;;;5013386;28;20037;-40
2022/12/23 06:09:12;;;;;;;8.68;3.22;;;;;;;;;;5031313;28;20033;-40
2022/12/23 06:11:37;;;;;;;10.02;3.38;;;;;;;;;;5031039;28;20048;-40
2022/12/23 06:14:05;;;;;;;5.47;3.28;;;;;;;;;;5030939;28;20451;-39
2022/12/23 06:16:30;;;;;;;6.07;2.78;;;;;;;;;;5031257;28;20431;-40
2022/12/23 06:18:55;;;;;;;6.53;3.08;;;;;;;;;;5030875;28;20025;-39
2022/12/23 06:21:21;;;;;;;5.88;3.40;;;;;;;;;;5031298;28;20041;-40
2022/12/23 06:23:46;;;;;;;7.80;3.83;;;;;;;;;;5031145;28;20045;-40
2022/12/23 06:26:12;;;;;;;4.00;3.42;;;;;;;;;;5030922;28;20464;-40
2022/12/23 06:28:37;;;;;;;4.28;2.38;;;;;;;;;;5031213;28;20074;-40
2022/12/23 06:31:03;;;;;;;5.07;3.35;;;;;;;;;;5030845;28;20496;-40
2022/12/23 06:33:28;;;;;;;4.45;2.60;;;;;;;;;;5030805;28;20095;-40
2022/12/23 06:35:53;;;;;;;4.28;2.38;;;;;;;;;;5030722;28;20033;-40
2022/12/23 06:38:19;;;;;;;3.40;2.25;;;;;;;;;;5030848;28;20029;-39
2022/12/23 06:40:44;;;;;;;4.03;2.22;;;;;;;;;;5032720;28;20033;-40
2022/12/23 06:43:12;;;;;;;2.95;2.53;;;;;;;;;;5034314;28;20029;-40
2022/12/23 06:45:38;;;;;;;3.17;2.08;;;;;;;;;;5034114;28;20041;-40
2022/12/23 06:48:03;;;;;;;3.83;1.77;;;;;;;;;;5034236;28;20030;-40
2022/12/23 06:50:29;;;;;;;3.13;2.03;;;;;;;;;;5034656;28;20037;-39
2022/12/23 06:52:54;;;;;;;5.13;3.33;;;;;;;;;;5034157;28;20047;-40
2022/12/23 06:55:19;;;;;;;5.80;3.55;;;;;;;;;;5034401;28;20043;-40
2022/12/23 06:57:45;;;;;;;3.65;2.47;;;;;;;;;;5016703;28;20390;-40
2022/12/23 07:00:11;;;;;;;3.95;2.50;;;;;;;;;;5034067;28;20094;-40
2022/12/23 07:02:36;;;;;;;3.38;2.35;;;;;;;;;;5033968;28;20021;-40
2022/12/23 07:05:02;;;;;;;3.92;2.70;;;;;;;;;;5034148;28;20455;-39
2022/12/23 07:07:27;;;;;;;4.80;2.35;;;;;;;;;;5033919;28;20433;-41
2022/12/23 07:09:53;;;;;;;12.60;3.30;;;;;;;;;;5034246;28;20112;-40
2022/12/23 07:12:18;;;;;;;3.75;2.17;;;;;;;;;;5033839;28;20419;-39
2022/12/23 07:14:44;;;;;;;5.35;2.70;;;;;;;;;;5033892;28;20448;-40
2022/12/23 07:17:09;;;;;;;2.97;2.50;;;;;;;;;;5033641;28;20029;-40
2022/12/23 07:19:34;;;;;;;4.28;1.92;;;;;;;;;;5033761;28;20045;-40
2022/12/23 07:22:00;;;;;;;5.22;2.38;;;;;;;;;;5033594;28;20053;-39
2022/12/23 07:24:26;;;;;;;7.50;2.53;;;;;;;;;;5033640;28;20041;-40
2022/12/23 07:26:51;;;;;;;4.22;2.47;;;;;;;;;;5033619;28;20017;-39
2022/12/23 07:29:16;;;;;;;3.03;2.10;;;;;;;;;;5033501;28;20069;-39
2022/12/23 07:31:42;;;;;;;4.70;2.95;;;;;;;;;;5033552;28;20021;-39
2022/12/23 07:34:08;;;;;;;5.47;3.40;;;;;;;;;;5033437;28;20469;-39
2022/12/23 07:36:33;;;;;;;5.18;3.40;;;;;;;;;;5015675;28;20055;-40
2022/12/23 07:38:59;;;;;;;4.60;2.58;;;;;;;;;;5033303;28;20033;-39
2022/12/23 07:41:24;;;;;;;3.40;2.42;;;;;;;;;;5033664;28;20021;-40
2022/12/23 07:43:50;;;;;;;3.65;2.30;;;;;;;;;;5015411;28;20037;-39
2022/12/23 07:46:15;;;;;;;3.90;2.55;;;;;;;;;;5033101;28;20157;-40
2022/12/23 07:48:41;;;;;;;3.95;2.13;;;;;;;;;;5033259;28;20034;-40
2022/12/23 07:51:06;;;;;;;4.05;2.55;;;;;;;;;;5032300;28;20155;-40
2022/12/23 07:53:32;;;;;;;2.75;2.15;;;;;;;;;;5032777;28;20104;-40
2022/12/23 07:55:57;;;;;;;3.92;1.77;;;;;;;;;;5033245;28;20025;-39
2022/12/23 07:58:23;;;;;;;4.63;2.42;;;;;;;;;;5032921;28;20096;-39
2022/12/23 08:00:49;;;;;;;4.00;2.25;;;;;;;;;;5032950;28;20024;-41
2022/12/23 08:03:14;;;;;;;2.35;1.95;;;;;;;;;;5033159;28;20037;-39
2022/12/23 08:05:39;;;;;;;3.10;2.33;;;;;;;;;;5032878;28;20136;-39
2022/12/23 08:08:05;;;;;;;3.80;2.67;;;;;;;;;;5033038;28;20387;-39
2022/12/23 08:10:30;;;;;;;3.50;2.30;;;;;;;;;;5033071;28;20096;-39
2022/12/23 08:12:58;;;;;;;3.67;2.05;;;;;;;;;;5032982;28;20109;-39
2022/12/23 08:15:24;;;;;;;4.45;2.85;;;;;;;;;;5032784;28;20079;-40
2022/12/23 08:17:49;;;;;;;5.38;1.73;;;;;;;;;;5032635;28;20033;-39
2022/12/23 08:20:15;;;;;;;5.43;3.38;;;;;;;;;;5032508;28;20033;-40
2022/12/23 08:22:40;;;;;;;4.68;2.55;;;;;;;;;;5032599;28;20030;-39
2022/12/23 08:25:06;;;;;;;4.93;2.13;;;;;;;;;;5015020;28;20041;-40
2022/12/23 08:27:31;;;;;;;4.13;3.35;;;;;;;;;;5032455;28;20430;-40
2022/12/23 08:29:57;;;;;;;3.97;2.30;;;;;;;;;;5032413;28;20057;-40
2022/12/23 08:32:24;;;;;;;4.40;2.83;;;;;;;;;;5032381;28;20512;-40
2022/12/23 08:34:49;;;;;;;4.85;2.33;;;;;;;;;;5032546;28;20028;-39
2022/12/23 08:37:15;;;;;;;5.85;2.75;;;;;;;;;;5032485;28;20038;-40
2022/12/23 08:39:42;;;;;;;5.07;3.20;;;;;;;;;;5032535;28;20472;-40
2022/12/23 08:42:07;;;;;;;5.90;2.88;;;;;;;;;;5032090;28;20075;-40
2022/12/23 08:44:33;;;;;;;2.97;1.67;;;;;;;;;;5032104;28;20127;-40
2022/12/23 08:46:58;;;;;;;2.80;1.52;;;;;;;;;;5031921;28;20037;-40
2022/12/23 08:49:24;;;;;;;2.83;1.42;;;;;;;;;;5032037;28;20041;-39
2022/12/23 08:51:49;;;;;;;4.00;2.75;;;;;;;;;;5032039;28;20025;-41
2022/12/23 08:54:16;;;;;;;4.65;2.28;;;;;;;;;;5031980;28;20539;-40
2022/12/23 08:56:42;;;;;;;2.58;1.70;;;;;;;;;;5031913;28;20060;-40
2022/12/23 08:59:11;;;;;;;4.20;2.38;;;;;;;;;;5031847;28;20110;-40
2022/12/23 09:01:36;;;;;;;3.35;2.03;;;;;;;;;;5031839;28;20061;-40
2022/12/23 09:04:02;;;;;;;4.40;3.15;;;;;;;;;;5031287;28;20115;-42
2022/12/23 09:06:30;;;;;;;2.53;1.63;;;;;;;;;;5031732;28;20469;-40
2022/12/23 09:08:56;;;;;;;4.03;2.60;;;;;;;;;;5031817;28;20025;-40
2022/12/23 09:11:23;;;;;;;2.72;1.67;;;;;;;;;;5031795;28;20029;-41
2022/12/23 09:13:49;;;;;;;3.90;3.15;;;;;;;;;;4997623;28;20026;-40
2022/12/23 09:16:14;;;;;;;3.95;2.25;;;;;;;;;;5031758;28;20040;-40
2022/12/23 09:18:40;;;;;;;4.97;2.38;;;;;;;;;;5032170;28;20473;-40
2022/12/23 09:21:08;;;;;;;2.38;2.05;;;;;;;;;;5031498;28;20543;-40
2022/12/23 09:23:34;;;;;;;3.50;2.25;;;;;;;;;;5031482;28;20460;-40
2022/12/23 09:25:59;;;;;;;2.42;1.98;;;;;;;;;;5031310;28;20078;-40
2022/12/23 09:28:25;;;;;;;15.50;2.92;;;;;;;;;;5031738;28;20021;-40
2022/12/23 09:30:51;;;;;;;2.10;1.90;;;;;;;;;;5031396;28;20044;-40
2022/12/23 09:33:17;;;;;;;4.35;2.47;;;;;;;;;;5031413;28;20017;-40
2022/12/23 09:35:42;;;;;;;3.25;2.47;;;;;;;;;;5031693;28;20561;-40
2022/12/23 09:38:08;;;;;;;4.28;2.90;;;;;;;;;;5031222;28;20049;-40
2022/12/23 09:40:34;;;;;;;1.58;1.40;;;;;;;;;;5031388;28;20069;-40
2022/12/23 09:43:12;;;;;;;5.00;2.58;;;;;;;;;;5013464;28;20376;-40
2022/12/23 09:45:43;;;;;;;4.45;2.45;;;;;;;;;;5031199;28;20057;-40
2022/12/23 09:48:12;;;;;;;2.40;2.17;;;;;;;;;;5031552;28;20041;-40
2022/12/23 09:50:38;;;;;;;4.78;2.67;;;;;;;;;;5031315;28;20036;-39
2022/12/23 09:53:06;;;;;;;3.53;2.60;;;;;;;;;;5031202;28;20036;-40
2022/12/23 09:55:46;;;;;;;4.40;2.30;;;;;;;;;;5031255;28;20464;-40
2022/12/23 09:58:21;;;;;;;5.97;2.08;;;;;;;;;;5031090;28;20515;-40
2022/12/23 10:00:56;;;;;;;4.55;1.58;;;;;;;;;;5031127;28;20068;-39
2022/12/23 10:03:28;;;;;;;3.95;1.73;;;;;;;;;;5031518;28;20033;-39
2022/12/23 10:06:18;;;;;;;3.58;2.17;;;;;;;;;;5031036;28;20037;-39
2022/12/23 10:08:45;;;;;;;2.15;1.95;;;;;;;;;;5031378;28;20095;-39
2022/12/23 10:11:17;;;;;;;3.53;2.05;;;;;;;;;;5031279;28;20030;-40
2022/12/23 10:14:00;;;;;;;2.65;2.05;;;;;;;;;;5013314;28;20029;-39
2022/12/23 10:16:31;;;;;;;2.25;1.95;;;;;;;;;;5034163;28;20468;-40
2022/12/23 10:18:56;;;;;;;2.13;1.85;;;;;;;;;;5017139;28;20028;-40
2022/12/23 10:21:29;;;;;;;4.53;2.17;;;;;;;;;;5034772;28;20029;-39
2022/12/23 10:23:54;;;;;;;3.15;2.28;;;;;;;;;;5034985;28;20676;-40
2022/12/23 10:26:40;;;;;;;2.33;2.00;;;;;;;;;;5034692;28;20029;-39
2022/12/23 10:29:16;;;;;;;4.53;2.13;;;;;;;;;;5034733;28;20057;-40
2022/12/23 10:31:57;;;;;;;2.42;1.55;;;;;;;;;;5034939;28;20026;-40
2022/12/23 10:34:35;;;;;;;3.15;2.05;;;;;;;;;;5034907;28;20447;-40
2022/12/23 10:37:06;;;;;;;3.05;1.77;;;;;;;;;;5034581;28;20476;-40
2022/12/23 10:39:47;;;;;;;3.00;1.77;;;;;;;;;;5034550;28;20204;-40
2022/12/23 10:42:19;;;;;;;1.80;1.48;;;;;;;;;;5034319;28;20041;-40
2022/12/23 10:44:54;;;;;;;6.85;2.22;;;;;;;;;;5034431;28;20124;-39
2022/12/23 10:47:39;;;;;;;5.28;2.47;;;;;;;;;;5034161;28;20048;-39
2022/12/23 10:50:33;;;;;;;2.35;1.95;;;;;;;;;;5034184;28;20522;-39
2022/12/23 10:53:00;;;;;;;3.28;2.00;;;;;;;;;;5021320;28;20127;-39
2022/12/23 10:55:29;;;;;;;4.70;2.58;;;;;;;;;;5016477;28;20383;-40
2022/12/23 10:57:57;;;;;;;2.78;1.85;;;;;;;;;;5034181;28;20119;-39
2022/12/23 11:00:22;;;;;;;2.08;1.30;;;;;;;;;;5034120;28;20484;-39
2022/12/23 11:02:54;;;;;;;3.78;2.35;;;;;;;;;;5034059;28;20064;-39
2022/12/23 11:05:24;;;;;;;4.72;2.33;;;;;;;;;;5033943;28;20058;-39
2022/12/23 11:07:49;;;;;;;3.40;2.15;;;;;;;;;;5034273;28;20382;-39
2022/12/23 11:10:19;;;;;;;2.20;1.70;;;;;;;;;;5034022;28;20025;-40
2022/12/23 11:12:47;;;;;;;5.18;2.20;;;;;;;;;;5033982;28;20058;-40
2022/12/23 11:15:27;;;;;;;3.50;2.55;;;;;;;;;;5034087;28;20033;-39
2022/12/23 11:17:56;;;;;;;4.38;2.42;;;;;;;;;;5033762;28;20029;-40
2022/12/23 11:20:22;;;;;;;3.97;2.55;;;;;;;;;;5033708;28;20464;-39
2022/12/23 11:26:23;;;;;;;4.57;2.78;;;;;;;;;;5033273;28;20531;-40
2022/12/23 11:28:56;;;;;;;3.10;1.83;;;;;;;;;;5034220;28;20028;-40
2022/12/23 11:31:32;;;;;;;2.40;1.98;;;;;;;;;;5033741;28;20029;-39
2022/12/23 11:33:58;;;;;;;4.97;1.98;;;;;;;;;;5033429;28;20112;-39
2022/12/23 11:36:26;;;;;;;3.00;2.20;;;;;;;;;;5033457;28;20137;-39
2022/12/23 11:39:03;;;;;;;2.20;1.92;;;;;;;;;;5033695;28;20128;-39
2022/12/23 11:41:33;;;;;;;2.03;1.55;;;;;;;;;;5033425;28;20376;-39
2022/12/23 11:44:02;;;;;;;2.13;1.75;;;;;;;;;;5033254;28;20391;-40
2022/12/23 11:46:29;;;;;;;4.30;2.78;;;;;;;;;;5033117;28;20060;-40
2022/12/23 11:49:13;;;;;;;4.30;2.55;;;;;;;;;;5033556;28;20034;-40
2022/12/23 11:51:39;;;;;;;3.03;1.92;;;;;;;;;;5033271;28;20384;-40
2022/12/23 11:54:05;;;;;;;3.38;2.40;;;;;;;;;;5033026;28;20014;-40
2022/12/23 11:56:36;;;;;;;3.28;2.42;;;;;;;;;;5033379;28;20388;-40
2022/12/23 11:59:04;;;;;;;3.97;2.58;;;;;;;;;;5033016;28;20495;-39
2022/12/23 12:01:30;;;;;;;2.47;1.70;;;;;;;;;;5033013;28;20189;-40
2022/12/23 12:03:58;;;;;;;5.45;3.25;;;;;;;;;;5014993;28;20041;-40
2022/12/23 12:06:25;;;;;;;6.88;2.58;;;;;;;;;;5033203;28;20117;-39
2022/12/23 12:08:52;;;;;;;1.88;1.38;;;;;;;;;;5032827;28;20021;-39
2022/12/23 12:11:19;;;;;;;6.05;2.55;;;;;;;;;;5032794;28;20074;-40
2022/12/23 12:13:49;;;;;;;4.30;2.20;;;;;;;;;;5033024;28;20034;-40
2022/12/23 12:16:29;;;;;;;2.95;2.05;;;;;;;;;;5032543;28;20078;-39
2022/12/23 12:18:57;;;;;;;2.92;1.98;;;;;;;;;;5033028;28;20068;-39
2022/12/23 12:21:24;;;;;;;2.72;2.10;;;;;;;;;;5032446;28;20032;-39
2022/12/23 12:23:57;;;;;;;3.55;2.30;;;;;;;;;;5032492;28;20030;-39
2022/12/23 12:26:22;;;;;;;7.00;3.15;;;;;;;;;;5032397;28;20376;-39
2022/12/23 12:28:51;;;;;;;9.88;3.83;;;;;;;;;;5031628;28;20147;-39
2022/12/23 12:31:22;;;;;;;5.03;3.20;;;;;;;;;;5032237;28;20037;-40
2022/12/23 12:33:56;;;;;;;4.50;3.13;;;;;;;;;;5032682;28;20386;-40
2022/12/23 12:36:40;;;;;;;6.40;2.05;;;;;;;;;;5032222;28;20029;-40
2022/12/23 12:39:12;;;;;;;4.82;3.22;;;;;;;;;;5031503;28;20435;-39
2022/12/23 12:41:45;;;;;;;6.78;3.10;;;;;;;;;;5014606;28;20040;-40
2022/12/23 12:44:22;;;;;;;6.13;2.53;;;;;;;;;;5031974;28;20127;-40
2022/12/23 12:47:02;;;;;;;4.68;2.83;;;;;;;;;;5010984;28;20484;-39
2022/12/23 12:49:34;;;;;;;8.57;3.88;;;;;;;;;;5012400;28;20473;-39
2022/12/23 12:52:02;;;;;;;3.67;2.22;;;;;;;;;;5012548;28;20037;-40
2022/12/23 12:54:34;;;;;;;6.18;3.35;;;;;;;;;;5012347;28;20476;-40
2022/12/23 12:57:01;;;;;;;5.45;3.70;;;;;;;;;;5012223;28;20111;-39
2022/12/23 12:59:34;;;;;;;5.22;2.65;;;;;;;;;;5012182;28;20022;-39
2022/12/23 13:02:38;;;;;;;3.38;2.25;;;;;;;;;;5012154;28;20045;-40
2022/12/23 13:05:15;;;;;;;6.07;3.53;;;;;;;;;;4951222;29;20486;-40
2022/12/23 13:07:43;;;;;;;3.05;1.83;;;;;;;;;;4951406;29;20035;-39
2022/12/23 13:10:20;;;;;;;5.38;3.70;;;;;;;;;;4985042;28;20397;-39
2022/12/23 13:12:46;;;;;;;9.52;4.05;;;;;;;;;;5012027;28;20445;-40
2022/12/23 13:15:17;;;;;;;12.73;4.20;;;;;;;;;;5011841;28;20134;-40
2022/12/23 13:18:01;;;;;;;6.70;3.80;;;;;;;;;;5011921;28;20065;-39
2022/12/23 13:20:26;;;;;;;7.55;4.53;;;;;;;;;;5012171;28;20401;-39
2022/12/23 13:22:54;;;;;;;10.18;4.80;;;;;;;;;;5011912;28;20014;-39
2022/12/23 13:25:27;;;;;;;12.95;4.43;;;;;;;;;;5011590;28;20492;-40
2022/12/23 13:28:10;;;;;;;9.93;4.78;;;;;;;;;;5011764;28;20042;-40
2022/12/23 13:30:41;;;;;;;11.43;5.25;;;;;;;;;;5026971;28;20504;-40
2022/12/23 13:33:25;;;;;;;7.95;4.72;;;;;;;;;;5011686;28;20034;-39
2022/12/23 13:36:11;;;;;;;10.50;5.20;;;;;;;;;;5011670;28;20092;-40
2022/12/23 13:38:50;;;;;;;12.20;4.53;;;;;;;;;;5011683;28;20040;-39
2022/12/23 13:41:24;;;;;;;9.43;4.97;;;;;;;;;;5011576;28;20041;-39
2022/12/23 13:44:06;;;;;;;12.57;6.22;;;;;;;;;;5011592;28;20037;-39
2022/12/23 13:46:50;;;;;;;8.65;5.03;;;;;;;;;;5024057;28;20567;-40
2022/12/23 13:49:33;;;;;;;11.70;5.80;;;;;;;;;;5032895;28;20045;-39
2022/12/23 13:52:04;;;;;;;6.33;3.27;;;;;;;;;;5035748;28;20025;-39
2022/12/23 13:54:52;;;;;;;11.50;5.95;;;;;;;;;;5035337;28;20267;-39
2022/12/23 13:57:24;;;;;;;13.15;5.57;;;;;;;;;;5035265;28;20476;-40
2022/12/23 14:00:19;;;;;;;7.88;4.85;;;;;;;;;;5035516;28;20030;-40
2022/12/23 14:02:50;;;;;;;7.45;5.05;;;;;;;;;;5021880;28;20052;-39
2022/12/23 14:05:28;;;;;;;13.45;5.25;;;;;;;;;;5035066;28;20046;-40
2022/12/23 14:07:54;;;;;;;9.95;5.63;;;;;;;;;;5035164;28;20033;-39
2022/12/23 14:10:21;;;;;;;10.45;5.30;;;;;;;;;;5034962;28;20029;-39
2022/12/23 14:12:47;;;;;;;9.20;5.95;;;;;;;;;;5035078;28;20036;-40
2022/12/23 14:15:23;;;;;;;17.40;5.47;;;;;;;;;;5034890;28;20017;-40
2022/12/23 14:17:53;;;;;;;11.85;5.03;;;;;;;;;;5034906;28;20044;-39
2022/12/23 14:20:19;;;;;;;11.55;5.50;;;;;;;;;;5034873;28;20108;-39
2022/12/23 14:23:07;;;;;;;9.43;5.70;;;;;;;;;;5034600;28;20071;-40
2022/12/23 14:25:44;;;;;;;12.98;6.13;;;;;;;;;;5006391;28;20082;-40
2022/12/23 14:28:16;;;;;;;12.40;5.45;;;;;;;;;;5034780;28;20399;-40
2022/12/23 14:30:45;;;;;;;15.43;7.55;;;;;;;;;;5034678;28;20082;-40
2022/12/23 14:33:16;;;;;;;10.68;5.95;;;;;;;;;;5034581;28;20032;-40
2022/12/23 14:35:42;;;;;;;10.10;5.88;;;;;;;;;;5034619;28;20029;-40
2022/12/23 14:38:13;;;;;;;12.05;6.15;;;;;;;;;;5034724;28;20071;-40
2022/12/23 14:40:42;;;;;;;12.63;4.80;;;;;;;;;;5034762;28;20044;-40
2022/12/23 14:43:24;;;;;;;7.97;4.93;;;;;;;;;;5034385;28;20535;-40
2022/12/23 14:46:00;;;;;;;16.38;6.35;;;;;;;;;;5013142;28;20061;-40
2022/12/23 14:48:40;;;;;;;17.88;5.40;;;;;;;;;;5014663;28;20381;-39
2022/12/23 14:51:09;;;;;;;10.07;5.30;;;;;;;;;;5013211;28;20100;-39
2022/12/23 14:53:35;;;;;;;8.07;4.75;;;;;;;;;;5014510;28;20496;-39
2022/12/23 14:56:06;;;;;;;9.05;5.07;;;;;;;;;;5014401;28;20066;-40
2022/12/23 14:58:40;;;;;;;11.82;6.07;;;;;;;;;;5013141;28;20030;-39
2022/12/23 15:01:11;;;;;;;12.93;4.88;;;;;;;;;;5013537;28;20026;-40
2022/12/23 15:03:47;;;;;;;16.33;6.70;;;;;;;;;;5014371;28;20022;-40
2022/12/23 15:06:14;;;;;;;14.95;5.57;;;;;;;;;;5014046;28;20057;-39
2022/12/23 15:08:41;;;;;;;11.27;5.70;;;;;;;;;;5013285;28;20107;-39
2022/12/23 15:11:08;;;;;;;12.73;5.53;;;;;;;;;;5014196;28;20500;-40
2022/12/23 15:13:33;;;;;;;7.22;4.20;;;;;;;;;;5014496;28;20025;-40
2022/12/23 15:15:59;;;;;;;14.07;6.35;;;;;;;;;;5014119;28;20105;-39
2022/12/23 15:18:25;;;;;;;11.38;6.45;;;;;;;;;;5014044;28;20351;-40
2022/12/23 15:21:01;;;;;;;13.50;5.57;;;;;;;;;;5014223;28;20053;-39